sensor_id;sensor_type;location;lat;lon;timestamp;pressure;altitude;pressure_sealevel;temperature;humidity
68986;BME280;56035;37.534;-122.308;2022-10-16T00:01:33;101039.69;;;16.10;79.32
68986;BME280;56035;37.534;-122.308;2022-10-16T00:04:00;101037.75;;;16.06;79.64
68986;BME280;56035;37.534;-122.308;2022-10-16T00:06:28;101032.44;;;16.04;79.79
68986;BME280;56035;37.534;-122.308;2022-10-16T00:08:54;101033.56;;;16.03;79.92
68986;BME280;56035;37.534;-122.308;2022-10-16T00:11:21;101039.66;;;16.00;79.64
68986;BME280;56035;37.534;-122.308;2022-10-16T00:13:50;101036.84;;;15.90;80.19
68986;BME280;56035;37.534;-122.308;2022-10-16T00:16:19;101029.88;;;15.87;80.35
68986;BME280;56035;37.534;-122.308;2022-10-16T00:18:45;101034.56;;;15.82;80.64
68986;BME280;56035;37.534;-122.308;2022-10-16T00:21:19;101027.31;;;15.76;81.07
68986;BME280;56035;37.534;-122.308;2022-10-16T00:23:46;101027.53;;;15.69;81.57
68986;BME280;56035;37.534;-122.308;2022-10-16T00:26:15;101031.66;;;15.61;81.36
68986;BME280;56035;37.534;-122.308;2022-10-16T00:28:44;101028.56;;;15.58;81.36
68986;BME280;56035;37.534;-122.308;2022-10-16T00:31:11;101031.06;;;15.54;81.27
68986;BME280;56035;37.534;-122.308;2022-10-16T00:33:39;101027.72;;;15.52;80.80
68986;BME280;56035;37.534;-122.308;2022-10-16T00:36:06;101036.03;;;15.47;80.98
68986;BME280;56035;37.534;-122.308;2022-10-16T00:38:33;101029.06;;;15.44;81.14
68986;BME280;56035;37.534;-122.308;2022-10-16T00:41:00;101027.66;;;15.42;81.68
68986;BME280;56035;37.534;-122.308;2022-10-16T00:43:41;101037.34;;;15.39;82.08
68986;BME280;56035;37.534;-122.308;2022-10-16T00:46:20;101039.56;;;15.37;82.05
68986;BME280;56035;37.534;-122.308;2022-10-16T00:49:14;101045.38;;;15.36;82.42
68986;BME280;56035;37.534;-122.308;2022-10-16T00:51:46;101048.13;;;15.31;82.75
68986;BME280;56035;37.534;-122.308;2022-10-16T00:54:31;101042.28;;;15.27;83.12
68986;BME280;56035;37.534;-122.308;2022-10-16T00:57:04;101045.31;;;15.26;83.47
68986;BME280;56035;37.534;-122.308;2022-10-16T00:59:33;101046.94;;;15.21;83.67
68986;BME280;56035;37.534;-122.308;2022-10-16T01:02:02;101044.69;;;15.18;84.07
68986;BME280;56035;37.534;-122.308;2022-10-16T01:04:50;101055.22;;;15.16;84.41
68986;BME280;56035;37.534;-122.308;2022-10-16T01:10:48;101052.13;;;15.08;84.97
68986;BME280;56035;37.534;-122.308;2022-10-16T01:13:24;101051.22;;;15.02;85.29
68986;BME280;56035;37.534;-122.308;2022-10-16T01:16:06;101053.94;;;14.97;85.34
68986;BME280;56035;37.534;-122.308;2022-10-16T01:18:40;101053.63;;;14.93;85.53
68986;BME280;56035;37.534;-122.308;2022-10-16T01:21:24;101057.78;;;14.91;85.22
68986;BME280;56035;37.534;-122.308;2022-10-16T01:29:56;101056.84;;;14.80;85.45
68986;BME280;56035;37.534;-122.308;2022-10-16T01:32:52;101054.88;;;14.75;85.48
68986;BME280;56035;37.534;-122.308;2022-10-16T01:35:35;101057.34;;;14.72;85.88
68986;BME280;56035;37.534;-122.308;2022-10-16T01:38:33;101066.44;;;14.67;85.90
68986;BME280;56035;37.534;-122.308;2022-10-16T01:41:29;101055.09;;;14.69;86.05
68986;BME280;56035;37.534;-122.308;2022-10-16T01:44:16;101055.88;;;14.64;86.54
68986;BME280;56035;37.534;-122.308;2022-10-16T01:46:46;101058.91;;;14.63;86.31
68986;BME280;56035;37.534;-122.308;2022-10-16T01:49:13;101062.22;;;14.60;86.42
68986;BME280;56035;37.534;-122.308;2022-10-16T01:51:41;101066.34;;;14.57;86.84
68986;BME280;56035;37.534;-122.308;2022-10-16T01:54:11;101072.41;;;14.54;86.64
68986;BME280;56035;37.534;-122.308;2022-10-16T01:56:39;101065.19;;;14.53;86.95
68986;BME280;56035;37.534;-122.308;2022-10-16T01:59:10;101061.81;;;14.51;87.04
68986;BME280;56035;37.534;-122.308;2022-10-16T02:01:40;101075.88;;;14.44;87.20
68986;BME280;56035;37.534;-122.308;2022-10-16T02:04:24;101071.44;;;14.43;87.35
68986;BME280;56035;37.534;-122.308;2022-10-16T02:06:53;101065.56;;;14.40;87.09
68986;BME280;56035;37.534;-122.308;2022-10-16T02:09:19;101066.13;;;14.42;86.71
68986;BME280;56035;37.534;-122.308;2022-10-16T02:11:46;101062.84;;;14.45;87.10
68986;BME280;56035;37.534;-122.308;2022-10-16T02:14:12;101077.28;;;14.47;87.05
68986;BME280;56035;37.534;-122.308;2022-10-16T02:16:44;101081.41;;;14.44;87.38
68986;BME280;56035;37.534;-122.308;2022-10-16T02:19:11;101079.78;;;14.48;87.43
68986;BME280;56035;37.534;-122.308;2022-10-16T02:22:03;101093.41;;;14.50;87.09
68986;BME280;56035;37.534;-122.308;2022-10-16T02:24:54;101088.47;;;14.52;87.53
68986;BME280;56035;37.534;-122.308;2022-10-16T02:33:07;101089.88;;;14.55;87.25
68986;BME280;56035;37.534;-122.308;2022-10-16T02:35:36;101090.38;;;14.51;87.95
68986;BME280;56035;37.534;-122.308;2022-10-16T02:38:03;101082.25;;;14.45;87.93
68986;BME280;56035;37.534;-122.308;2022-10-16T02:40:30;101090.00;;;14.43;87.78
68986;BME280;56035;37.534;-122.308;2022-10-16T02:42:56;101073.94;;;14.45;88.16
68986;BME280;56035;37.534;-122.308;2022-10-16T02:45:23;101085.28;;;14.43;88.10
68986;BME280;56035;37.534;-122.308;2022-10-16T02:47:49;101094.41;;;14.39;88.30
68986;BME280;56035;37.534;-122.308;2022-10-16T02:50:15;101098.75;;;14.35;88.29
68986;BME280;56035;37.534;-122.308;2022-10-16T02:52:42;101093.41;;;14.28;88.77
68986;BME280;56035;37.534;-122.308;2022-10-16T02:55:08;101096.50;;;14.32;89.38
68986;BME280;56035;37.534;-122.308;2022-10-16T02:57:34;101101.47;;;14.29;89.26
68986;BME280;56035;37.534;-122.308;2022-10-16T03:00:04;101098.19;;;14.33;89.65
68986;BME280;56035;37.534;-122.308;2022-10-16T03:02:30;101103.41;;;14.29;89.77
68986;BME280;56035;37.534;-122.308;2022-10-16T03:04:57;101102.84;;;14.27;90.18
68986;BME280;56035;37.534;-122.308;2022-10-16T03:07:23;101102.84;;;14.27;89.70
68986;BME280;56035;37.534;-122.308;2022-10-16T03:09:49;101099.22;;;14.26;90.03
68986;BME280;56035;37.534;-122.308;2022-10-16T03:12:15;101094.72;;;14.20;90.28
68986;BME280;56035;37.534;-122.308;2022-10-16T03:14:41;101103.88;;;14.21;90.43
68986;BME280;56035;37.534;-122.308;2022-10-16T03:17:07;101103.53;;;14.17;90.99
68986;BME280;56035;37.534;-122.308;2022-10-16T03:19:33;101095.81;;;14.19;90.87
68986;BME280;56035;37.534;-122.308;2022-10-16T03:22:01;101099.66;;;14.18;90.23
68986;BME280;56035;37.534;-122.308;2022-10-16T03:24:27;101102.72;;;14.17;90.71
68986;BME280;56035;37.534;-122.308;2022-10-16T03:26:54;101102.44;;;14.18;91.28
68986;BME280;56035;37.534;-122.308;2022-10-16T03:29:20;101101.28;;;14.14;90.85
68986;BME280;56035;37.534;-122.308;2022-10-16T03:31:46;101099.34;;;14.15;91.48
68986;BME280;56035;37.534;-122.308;2022-10-16T03:34:15;101106.81;;;14.14;91.92
68986;BME280;56035;37.534;-122.308;2022-10-16T03:36:41;101111.53;;;14.14;91.99
68986;BME280;56035;37.534;-122.308;2022-10-16T03:39:07;101111.53;;;14.14;91.14
68986;BME280;56035;37.534;-122.308;2022-10-16T03:41:33;101110.63;;;14.08;91.38
68986;BME280;56035;37.534;-122.308;2022-10-16T03:43:59;101115.94;;;14.10;91.61
68986;BME280;56035;37.534;-122.308;2022-10-16T03:46:25;101111.78;;;14.12;90.79
68986;BME280;56035;37.534;-122.308;2022-10-16T03:48:52;101111.25;;;14.15;90.39
68986;BME280;56035;37.534;-122.308;2022-10-16T03:51:18;101116.25;;;14.13;90.36
68986;BME280;56035;37.534;-122.308;2022-10-16T03:53:44;101119.25;;;14.12;90.30
68986;BME280;56035;37.534;-122.308;2022-10-16T03:56:10;101120.09;;;14.12;89.32
68986;BME280;56035;37.534;-122.308;2022-10-16T03:58:36;101116.75;;;14.10;89.72
68986;BME280;56035;37.534;-122.308;2022-10-16T04:01:02;101117.81;;;14.09;89.38
68986;BME280;56035;37.534;-122.308;2022-10-16T04:03:28;101122.84;;;14.12;89.82
68986;BME280;56035;37.534;-122.308;2022-10-16T04:05:55;101125.72;;;14.17;89.66
68986;BME280;56035;37.534;-122.308;2022-10-16T04:08:21;101130.41;;;14.17;89.97
68986;BME280;56035;37.534;-122.308;2022-10-16T04:10:47;101126.81;;;14.16;89.95
68986;BME280;56035;37.534;-122.308;2022-10-16T04:13:13;101131.84;;;14.19;89.57
68986;BME280;56035;37.534;-122.308;2022-10-16T04:15:39;101127.97;;;14.20;89.16
68986;BME280;56035;37.534;-122.308;2022-10-16T04:18:06;101138.78;;;14.22;89.18
68986;BME280;56035;37.534;-122.308;2022-10-16T04:20:33;101136.31;;;14.25;88.63
68986;BME280;56035;37.534;-122.308;2022-10-16T04:22:59;101137.19;;;14.26;88.52
68986;BME280;56035;37.534;-122.308;2022-10-16T04:25:26;101137.72;;;14.23;88.47
68986;BME280;56035;37.534;-122.308;2022-10-16T04:27:55;101134.94;;;14.23;87.74
68986;BME280;56035;37.534;-122.308;2022-10-16T04:30:22;101141.03;;;14.25;87.55
68986;BME280;56035;37.534;-122.308;2022-10-16T04:32:49;101145.00;;;14.29;87.83
68986;BME280;56035;37.534;-122.308;2022-10-16T04:35:16;101148.59;;;14.29;87.20
68986;BME280;56035;37.534;-122.308;2022-10-16T04:37:43;101150.00;;;14.32;87.55
68986;BME280;56035;37.534;-122.308;2022-10-16T04:40:09;101152.84;;;14.37;87.66
68986;BME280;56035;37.534;-122.308;2022-10-16T04:42:35;101157.03;;;14.40;87.22
68986;BME280;56035;37.534;-122.308;2022-10-16T04:45:02;101156.44;;;14.38;87.19
68986;BME280;56035;37.534;-122.308;2022-10-16T04:47:28;101153.44;;;14.39;86.92
68986;BME280;56035;37.534;-122.308;2022-10-16T04:49:54;101165.09;;;14.41;86.58
68986;BME280;56035;37.534;-122.308;2022-10-16T04:52:22;101164.84;;;14.43;86.88
68986;BME280;56035;37.534;-122.308;2022-10-16T04:54:50;101161.78;;;14.44;86.67
68986;BME280;56035;37.534;-122.308;2022-10-16T04:57:17;101169.88;;;14.46;86.99
68986;BME280;56035;37.534;-122.308;2022-10-16T04:59:43;101167.66;;;14.48;87.20
68986;BME280;56035;37.534;-122.308;2022-10-16T05:02:09;101178.03;;;14.52;86.89
68986;BME280;56035;37.534;-122.308;2022-10-16T05:04:36;101185.00;;;14.55;86.49
68986;BME280;56035;37.534;-122.308;2022-10-16T05:07:02;101178.91;;;14.58;86.85
68986;BME280;56035;37.534;-122.308;2022-10-16T05:09:28;101185.03;;;14.60;86.69
68986;BME280;56035;37.534;-122.308;2022-10-16T05:11:54;101187.88;;;14.65;86.41
68986;BME280;56035;37.534;-122.308;2022-10-16T05:14:20;101195.41;;;14.70;86.45
68986;BME280;56035;37.534;-122.308;2022-10-16T05:16:46;101197.66;;;14.73;86.23
68986;BME280;56035;37.534;-122.308;2022-10-16T05:19:13;101201.88;;;14.75;86.07
68986;BME280;56035;37.534;-122.308;2022-10-16T05:21:39;101198.56;;;14.79;85.70
68986;BME280;56035;37.534;-122.308;2022-10-16T05:24:06;101195.00;;;14.83;85.37
68986;BME280;56035;37.534;-122.308;2022-10-16T05:26:32;101196.69;;;14.84;85.46
68986;BME280;56035;37.534;-122.308;2022-10-16T05:28:58;101198.41;;;14.90;84.73
68986;BME280;56035;37.534;-122.308;2022-10-16T05:31:24;101198.72;;;14.94;84.58
68986;BME280;56035;37.534;-122.308;2022-10-16T05:33:50;101195.72;;;14.95;84.86
68986;BME280;56035;37.534;-122.308;2022-10-16T05:36:16;101189.88;;;14.97;84.63
68986;BME280;56035;37.534;-122.308;2022-10-16T05:38:43;101188.81;;;14.98;84.71
68986;BME280;56035;37.534;-122.308;2022-10-16T05:41:09;101184.41;;;15.02;84.43
68986;BME280;56035;37.534;-122.308;2022-10-16T05:43:56;101184.13;;;15.04;84.02
68986;BME280;56035;37.534;-122.308;2022-10-16T05:46:23;101185.03;;;15.09;83.55
68986;BME280;56035;37.534;-122.308;2022-10-16T05:48:52;101192.00;;;15.12;83.48
68986;BME280;56035;37.534;-122.308;2022-10-16T05:51:18;101186.16;;;15.13;83.35
68986;BME280;56035;37.534;-122.308;2022-10-16T05:53:44;101186.75;;;15.15;83.46
68986;BME280;56035;37.534;-122.308;2022-10-16T05:56:11;101189.25;;;15.17;83.17
68986;BME280;56035;37.534;-122.308;2022-10-16T05:58:38;101189.00;;;15.18;82.85
68986;BME280;56035;37.534;-122.308;2022-10-16T06:01:09;101188.50;;;15.21;82.90
68986;BME280;56035;37.534;-122.308;2022-10-16T06:03:36;101184.59;;;15.22;82.54
68986;BME280;56035;37.534;-122.308;2022-10-16T06:06:10;101193.50;;;15.25;82.52
68986;BME280;56035;37.534;-122.308;2022-10-16T06:08:37;101199.63;;;15.27;82.57
68986;BME280;56035;37.534;-122.308;2022-10-16T06:11:04;101204.66;;;15.30;82.92
68986;BME280;56035;37.534;-122.308;2022-10-16T06:13:31;101204.66;;;15.30;82.90
68986;BME280;56035;37.534;-122.308;2022-10-16T06:15:58;101201.31;;;15.28;83.03
68986;BME280;56035;37.534;-122.308;2022-10-16T06:18:26;101202.16;;;15.28;83.00
68986;BME280;56035;37.534;-122.308;2022-10-16T06:20:52;101200.47;;;15.27;82.53
68986;BME280;56035;37.534;-122.308;2022-10-16T06:23:18;101197.16;;;15.30;82.13
68986;BME280;56035;37.534;-122.308;2022-10-16T06:25:44;101204.66;;;15.30;82.02
68986;BME280;56035;37.534;-122.308;2022-10-16T06:28:10;101201.63;;;15.31;82.17
68986;BME280;56035;37.534;-122.308;2022-10-16T06:30:37;101199.41;;;15.33;82.27
68986;BME280;56035;37.534;-122.308;2022-10-16T06:33:03;101195.78;;;15.33;81.79
68986;BME280;56035;37.534;-122.308;2022-10-16T06:35:29;101200.81;;;15.36;81.96
68986;BME280;56035;37.534;-122.308;2022-10-16T06:37:57;101195.28;;;15.36;82.13
68986;BME280;56035;37.534;-122.308;2022-10-16T06:40:24;101198.03;;;15.36;81.94
68986;BME280;56035;37.534;-122.308;2022-10-16T06:42:50;101191.41;;;15.37;81.84
68986;BME280;56035;37.534;-122.308;2022-10-16T06:45:17;101191.41;;;15.37;81.84
68986;BME280;56035;37.534;-122.308;2022-10-16T06:47:43;101191.41;;;15.37;81.83
68986;BME280;56035;37.534;-122.308;2022-10-16T06:50:09;101196.41;;;15.40;81.72
68986;BME280;56035;37.534;-122.308;2022-10-16T06:52:35;101194.50;;;15.40;81.42
68986;BME280;56035;37.534;-122.308;2022-10-16T06:55:02;101188.66;;;15.42;81.70
68986;BME280;56035;37.534;-122.308;2022-10-16T06:57:29;101195.06;;;15.42;82.12
68986;BME280;56035;37.534;-122.308;2022-10-16T06:59:55;101194.75;;;15.39;81.52
68986;BME280;56035;37.534;-122.308;2022-10-16T07:02:21;101202.56;;;15.42;81.57
68986;BME280;56035;37.534;-122.308;2022-10-16T07:04:47;101197.81;;;15.42;81.68
68986;BME280;56035;37.534;-122.308;2022-10-16T07:07:13;101198.94;;;15.41;81.30
68986;BME280;56035;37.534;-122.308;2022-10-16T07:09:40;101200.31;;;15.39;81.13
68986;BME280;56035;37.534;-122.308;2022-10-16T07:12:06;101203.38;;;15.42;81.18
68986;BME280;56035;37.534;-122.308;2022-10-16T07:14:32;101197.00;;;15.42;81.46
68986;BME280;56035;37.534;-122.308;2022-10-16T07:16:58;101197.81;;;15.42;81.67
68986;BME280;56035;37.534;-122.308;2022-10-16T07:19:24;101201.44;;;15.43;81.31
68986;BME280;56035;37.534;-122.308;2022-10-16T07:21:51;101210.88;;;15.42;81.63
68986;BME280;56035;37.534;-122.308;2022-10-16T07:24:17;101208.09;;;15.42;81.41
68986;BME280;56035;37.534;-122.308;2022-10-16T07:26:45;101201.72;;;15.41;81.49
68986;BME280;56035;37.534;-122.308;2022-10-16T07:29:13;101200.59;;;15.42;81.56
68986;BME280;56035;37.534;-122.308;2022-10-16T07:31:41;101211.72;;;15.42;81.69
68986;BME280;56035;37.534;-122.308;2022-10-16T07:34:07;101205.91;;;15.44;81.06
68986;BME280;56035;37.534;-122.308;2022-10-16T07:36:33;101205.06;;;15.43;81.22
68986;BME280;56035;37.534;-122.308;2022-10-16T07:39:00;101203.13;;;15.44;81.37
68986;BME280;56035;37.534;-122.308;2022-10-16T07:41:27;101211.47;;;15.44;81.36
68986;BME280;56035;37.534;-122.308;2022-10-16T07:43:54;101212.53;;;15.43;81.14
68986;BME280;56035;37.534;-122.308;2022-10-16T07:46:23;101199.78;;;15.42;81.04
68986;BME280;56035;37.534;-122.308;2022-10-16T07:48:49;101215.31;;;15.43;81.08
68986;BME280;56035;37.534;-122.308;2022-10-16T07:51:17;101205.91;;;15.44;81.15
68986;BME280;56035;37.534;-122.308;2022-10-16T07:53:44;101202.56;;;15.42;81.02
68986;BME280;56035;37.534;-122.308;2022-10-16T07:56:10;101204.81;;;15.45;81.19
68986;BME280;56035;37.534;-122.308;2022-10-16T07:58:37;101211.19;;;15.45;81.14
68986;BME280;56035;37.534;-122.308;2022-10-16T08:01:06;101205.38;;;15.47;81.01
68986;BME280;56035;37.534;-122.308;2022-10-16T08:03:33;101211.19;;;15.45;80.96
68986;BME280;56035;37.534;-122.308;2022-10-16T08:05:59;101212.28;;;15.44;80.88
68986;BME280;56035;37.534;-122.308;2022-10-16T08:08:26;101210.34;;;15.45;80.98
68986;BME280;56035;37.534;-122.308;2022-10-16T08:10:53;101212.03;;;15.46;81.17
68986;BME280;56035;37.534;-122.308;2022-10-16T08:13:20;101211.19;;;15.45;81.04
68986;BME280;56035;37.534;-122.308;2022-10-16T08:15:46;101213.97;;;15.45;81.11
68986;BME280;56035;37.534;-122.308;2022-10-16T08:18:14;101223.44;;;15.50;80.88
68986;BME280;56035;37.534;-122.308;2022-10-16T08:20:41;101226.50;;;15.48;81.48
68986;BME280;56035;37.534;-122.308;2022-10-16T08:23:10;101232.03;;;15.48;81.15
68986;BME280;56035;37.534;-122.308;2022-10-16T08:25:37;101224.53;;;15.49;81.07
68986;BME280;56035;37.534;-122.308;2022-10-16T08:28:04;101229.25;;;15.48;81.38
68986;BME280;56035;37.534;-122.308;2022-10-16T08:30:33;101230.38;;;15.47;80.95
68986;BME280;56035;37.534;-122.308;2022-10-16T08:33:00;101225.66;;;15.48;80.94
68986;BME280;56035;37.534;-122.308;2022-10-16T08:35:27;101225.13;;;15.51;80.94
68986;BME280;56035;37.534;-122.308;2022-10-16T08:37:53;101225.97;;;15.51;81.30
68986;BME280;56035;37.534;-122.308;2022-10-16T08:40:24;101229.84;;;15.50;80.81
68986;BME280;56035;37.534;-122.308;2022-10-16T08:43:00;101225.38;;;15.49;81.41
68986;BME280;56035;37.534;-122.308;2022-10-16T08:45:44;101225.91;;;15.46;81.00
68986;BME280;56035;37.534;-122.308;2022-10-16T08:51:23;101233.72;;;15.49;81.02
68986;BME280;56035;37.534;-122.308;2022-10-16T08:54:02;101243.72;;;15.50;81.17
68986;BME280;56035;37.534;-122.308;2022-10-16T08:56:29;101243.72;;;15.50;81.17
68986;BME280;56035;37.534;-122.308;2022-10-16T08:58:57;101243.44;;;15.52;81.22
68986;BME280;56035;37.534;-122.308;2022-10-16T09:01:37;101250.38;;;15.49;81.65
68986;BME280;56035;37.534;-122.308;2022-10-16T09:04:38;101257.94;;;15.54;81.39
68986;BME280;56035;37.534;-122.308;2022-10-16T09:07:18;101261.53;;;15.54;81.17
68986;BME280;56035;37.534;-122.308;2022-10-16T09:12:42;101264.00;;;15.51;81.08
68986;BME280;56035;37.534;-122.308;2022-10-16T09:15:32;101265.41;;;15.53;81.03
68986;BME280;56035;37.534;-122.308;2022-10-16T09:18:10;101268.19;;;15.53;81.12
68986;BME280;56035;37.534;-122.308;2022-10-16T09:20:51;101268.44;;;15.52;80.83
68986;BME280;56035;37.534;-122.308;2022-10-16T09:23:26;101265.66;;;15.52;80.93
68986;BME280;56035;37.534;-122.308;2022-10-16T09:25:53;101268.19;;;15.53;81.18
68986;BME280;56035;37.534;-122.308;2022-10-16T09:28:20;101265.16;;;15.55;80.73
68986;BME280;56035;37.534;-122.308;2022-10-16T09:30:47;101266.81;;;15.56;80.69
68986;BME280;56035;37.534;-122.308;2022-10-16T09:33:19;101267.63;;;15.56;80.93
68986;BME280;56035;37.534;-122.308;2022-10-16T09:35:50;101265.72;;;15.57;80.82
68986;BME280;56035;37.534;-122.308;2022-10-16T09:38:31;101257.66;;;15.55;80.98
68986;BME280;56035;37.534;-122.308;2022-10-16T09:40:59;101263.19;;;15.55;80.94
68986;BME280;56035;37.534;-122.308;2022-10-16T09:43:49;101260.19;;;15.57;80.76
68986;BME280;56035;37.534;-122.308;2022-10-16T09:46:36;101267.63;;;15.56;80.83
68986;BME280;56035;37.534;-122.308;2022-10-16T09:49:23;101265.97;;;15.55;80.38
68986;BME280;56035;37.534;-122.308;2022-10-16T09:51:50;101274.91;;;15.57;80.84
68986;BME280;56035;37.534;-122.308;2022-10-16T09:54:19;101271.84;;;15.59;80.75
68986;BME280;56035;37.534;-122.308;2022-10-16T09:56:46;101271.53;;;15.55;80.76
68986;BME280;56035;37.534;-122.308;2022-10-16T09:59:17;101269.06;;;15.59;81.12
68986;BME280;56035;37.534;-122.308;2022-10-16T10:01:50;101272.38;;;15.56;80.92
68986;BME280;56035;37.534;-122.308;2022-10-16T10:04:21;101271.53;;;15.55;81.03
68986;BME280;56035;37.534;-122.308;2022-10-16T10:09:24;101280.44;;;15.57;80.88
68986;BME280;56035;37.534;-122.308;2022-10-16T10:11:55;101274.06;;;15.57;80.81
68986;BME280;56035;37.534;-122.308;2022-10-16T10:14:48;101289.63;;;15.58;81.06
68986;BME280;56035;37.534;-122.308;2022-10-16T10:17:19;101301.03;;;15.61;80.73
68986;BME280;56035;37.534;-122.308;2022-10-16T10:19:51;101300.44;;;15.59;80.80
68986;BME280;56035;37.534;-122.308;2022-10-16T10:24:54;101300.44;;;15.59;80.68
68986;BME280;56035;37.534;-122.308;2022-10-16T10:27:21;101296.59;;;15.60;80.68
68986;BME280;56035;37.534;-122.308;2022-10-16T10:35:34;101296.59;;;15.60;80.29
68986;BME280;56035;37.534;-122.308;2022-10-16T10:38:25;101299.09;;;15.62;80.29
68986;BME280;56035;37.534;-122.308;2022-10-16T10:41:12;101299.09;;;15.62;80.08
68986;BME280;56035;37.534;-122.308;2022-10-16T10:44:11;101291.59;;;15.62;80.00
68986;BME280;56035;37.534;-122.308;2022-10-16T10:47:30;101284.38;;;15.61;80.41
68986;BME280;56035;37.534;-122.308;2022-10-16T10:49:48;101284.38;;;15.61;80.05
68986;BME280;56035;37.534;-122.308;2022-10-16T10:55:58;101296.59;;;15.60;79.88
68986;BME280;56035;37.534;-122.308;2022-10-16T11:03:55;101302.16;;;15.60;79.93
68986;BME280;56035;37.534;-122.308;2022-10-16T11:07:02;101303.28;;;15.64;79.99
68986;BME280;56035;37.534;-122.308;2022-10-16T11:09:44;101295.19;;;15.63;80.16
68986;BME280;56035;37.534;-122.308;2022-10-16T11:12:42;101312.72;;;15.63;80.08
68986;BME280;56035;37.534;-122.308;2022-10-16T11:17:46;101305.47;;;15.62;80.11
68986;BME280;56035;37.534;-122.308;2022-10-16T11:22:58;101309.09;;;15.63;80.10
68986;BME280;56035;37.534;-122.308;2022-10-16T11:25:31;101318.28;;;15.63;79.87
68986;BME280;56035;37.534;-122.308;2022-10-16T11:31:13;101310.47;;;15.60;79.88
68986;BME280;56035;37.534;-122.308;2022-10-16T11:33:55;101314.91;;;15.61;79.88
68986;BME280;56035;37.534;-122.308;2022-10-16T11:36:44;101318.81;;;15.60;79.91
68986;BME280;56035;37.534;-122.308;2022-10-16T11:39:21;101320.19;;;15.63;79.58
68986;BME280;56035;37.534;-122.308;2022-10-16T11:47:27;101320.47;;;15.61;79.85
68986;BME280;56035;37.534;-122.308;2022-10-16T11:55:59;101327.38;;;15.59;79.64
68986;BME280;56035;37.534;-122.308;2022-10-16T12:03:55;101335.19;;;15.62;79.75
68986;BME280;56035;37.534;-122.308;2022-10-16T12:09:24;101332.94;;;15.59;79.41
68986;BME280;56035;37.534;-122.308;2022-10-16T12:11:51;101341.03;;;15.60;79.67
68986;BME280;56035;37.534;-122.308;2022-10-16T12:14:21;101345.47;;;15.61;79.55
68986;BME280;56035;37.534;-122.308;2022-10-16T12:16:53;101339.31;;;15.59;79.45
68986;BME280;56035;37.534;-122.308;2022-10-16T12:19:21;101352.13;;;15.60;79.46
68986;BME280;56035;37.534;-122.308;2022-10-16T12:21:48;101351.03;;;15.61;80.44
68986;BME280;56035;37.534;-122.308;2022-10-16T12:24:35;101344.88;;;15.59;80.26
68986;BME280;56035;37.534;-122.308;2022-10-16T12:27:04;101351.53;;;15.58;79.82
68986;BME280;56035;37.534;-122.308;2022-10-16T12:32:01;101347.09;;;15.57;79.73
68986;BME280;56035;37.534;-122.308;2022-10-16T12:34:42;101353.81;;;15.61;79.32
68986;BME280;56035;37.534;-122.308;2022-10-16T12:37:22;101356.31;;;15.63;79.35
68986;BME280;56035;37.534;-122.308;2022-10-16T12:39:50;101351.59;;;15.63;79.62
68986;BME280;56035;37.534;-122.308;2022-10-16T12:44:53;101353.81;;;15.61;80.02
68986;BME280;56035;37.534;-122.308;2022-10-16T12:49:54;101362.72;;;15.63;80.07
68986;BME280;56035;37.534;-122.308;2022-10-16T12:55:00;101369.94;;;15.64;80.10
68986;BME280;56035;37.534;-122.308;2022-10-16T13:00:26;101372.66;;;15.59;79.31
68986;BME280;56035;37.534;-122.308;2022-10-16T13:16:55;101367.41;;;15.63;79.87
68986;BME280;56035;37.534;-122.308;2022-10-16T13:19:42;101373.25;;;15.61;80.03
68986;BME280;56035;37.534;-122.308;2022-10-16T13:22:25;101374.34;;;15.60;79.54
68986;BME280;56035;37.534;-122.308;2022-10-16T13:27:54;101369.88;;;15.59;80.22
68986;BME280;56035;37.534;-122.308;2022-10-16T13:30:24;101376.00;;;15.61;80.07
68986;BME280;56035;37.534;-122.308;2022-10-16T13:35:26;101378.78;;;15.61;79.98
68986;BME280;56035;37.534;-122.308;2022-10-16T13:38:12;101378.19;;;15.59;80.02
68986;BME280;56035;37.534;-122.308;2022-10-16T13:41:15;101378.72;;;15.56;80.63
68986;BME280;56035;37.534;-122.308;2022-10-16T13:46:18;101382.06;;;15.53;80.73
68986;BME280;56035;37.534;-122.308;2022-10-16T13:48:45;101392.06;;;15.54;80.49
68986;BME280;56035;37.534;-122.308;2022-10-16T13:51:21;101391.22;;;15.54;80.20
68986;BME280;56035;37.534;-122.308;2022-10-16T13:53:48;101392.88;;;15.55;80.62
68986;BME280;56035;37.534;-122.308;2022-10-16T13:56:17;101399.22;;;15.50;80.47
68986;BME280;56035;37.534;-122.308;2022-10-16T13:58:44;101405.34;;;15.52;80.82
68986;BME280;56035;37.534;-122.308;2022-10-16T14:01:15;101397.00;;;15.52;81.12
68986;BME280;56035;37.534;-122.308;2022-10-16T14:03:42;101393.91;;;15.49;81.18
68986;BME280;56035;37.534;-122.308;2022-10-16T14:06:27;101396.97;;;15.47;80.61
68986;BME280;56035;37.534;-122.308;2022-10-16T14:09:25;101399.75;;;15.47;81.62
68986;BME280;56035;37.534;-122.308;2022-10-16T14:12:00;101402.41;;;15.37;82.12
68986;BME280;56035;37.534;-122.308;2022-10-16T14:14:42;101402.97;;;15.39;81.22
68986;BME280;56035;37.534;-122.308;2022-10-16T14:17:29;101399.66;;;15.42;80.55
68986;BME280;56035;37.534;-122.308;2022-10-16T14:19:58;101402.75;;;15.45;80.90
68986;BME280;56035;37.534;-122.308;2022-10-16T14:22:39;101405.31;;;15.47;80.75
68986;BME280;56035;37.534;-122.308;2022-10-16T14:25:23;101403.34;;;15.48;80.86